createdAt,value
2019-04-10T00:01:30.622Z,1.30
2019-04-10T00:04:00.935Z,1.30
2019-04-10T00:06:32.695Z,1.40
2019-04-10T00:09:02.989Z,1.50
2019-04-10T00:11:34.555Z,1.60
2019-04-10T00:14:05.110Z,1.70
2019-04-10T00:16:36.159Z,1.80
2019-04-10T00:19:06.769Z,1.80
2019-04-10T00:21:37.601Z,1.90
2019-04-10T00:24:08.235Z,2.00
2019-04-10T00:26:39.508Z,2.10
2019-04-10T00:29:10.112Z,2.10
2019-04-10T00:31:40.436Z,2.20
2019-04-10T00:34:11.562Z,2.20
2019-04-10T00:36:41.902Z,2.20
2019-04-10T00:39:12.628Z,2.20
2019-04-10T00:41:44.906Z,2.20
2019-04-10T00:44:15.742Z,2.20
2019-04-10T00:46:46.470Z,2.30
2019-04-10T00:49:19.555Z,2.20
2019-04-10T00:51:50.612Z,2.10
2019-04-10T00:54:21.717Z,2.10
2019-04-10T00:56:52.764Z,2.10
2019-04-10T00:59:24.084Z,2.00
2019-04-10T01:01:54.764Z,2.00
2019-04-10T01:04:44.645Z,1.90
2019-04-10T01:07:15.279Z,2.00
2019-04-10T01:09:45.840Z,2.00
2019-04-10T01:12:16.131Z,2.00
2019-04-10T01:14:46.476Z,2.10
2019-04-10T01:17:16.776Z,2.10
2019-04-10T01:19:48.031Z,2.10
2019-04-10T01:22:19.054Z,2.10
2019-04-10T01:24:50.226Z,2.10
2019-04-10T01:27:22.373Z,2.10
2019-04-10T01:29:53.680Z,2.00
2019-04-10T01:32:24.044Z,2.10
2019-04-10T01:34:54.368Z,2.20
2019-04-10T01:37:25.101Z,2.10
2019-04-10T01:39:55.424Z,2.20
2019-04-10T01:42:25.751Z,2.20
2019-04-10T01:44:56.076Z,2.10
2019-04-10T01:47:26.933Z,2.20
2019-04-10T01:49:57.928Z,2.30
2019-04-10T01:52:29.001Z,2.30
2019-04-10T01:54:59.759Z,2.20
2019-04-10T01:57:30.498Z,2.20
2019-04-10T02:00:23.581Z,2.30
2019-04-10T02:02:54.348Z,2.20
2019-04-10T02:05:25.991Z,2.30
2019-04-10T02:08:05.217Z,2.30
2019-04-10T02:10:29.069Z,2.20
2019-04-10T02:12:59.534Z,2.10
2019-04-10T02:15:30.116Z,2.10
2019-04-10T02:18:01.292Z,2.00
2019-04-10T02:20:31.735Z,2.00
2019-04-10T02:23:02.265Z,2.10
2019-04-10T02:25:32.677Z,2.20
2019-04-10T02:28:03.320Z,2.20
2019-04-10T02:30:34.723Z,2.30
2019-04-10T02:33:06.096Z,2.30
2019-04-10T02:35:57.129Z,2.40
2019-04-10T02:38:45.600Z,2.30
2019-04-10T02:40:59.175Z,2.30
2019-04-10T02:43:30.939Z,2.30
2019-04-10T02:46:02.162Z,2.30
2019-04-10T02:48:33.875Z,2.30
2019-04-10T02:51:05.497Z,2.40
2019-04-10T02:53:37.424Z,2.40
2019-04-10T02:56:08.218Z,2.50
2019-04-10T02:58:39.927Z,2.40
2019-04-10T03:01:23.521Z,2.40
2019-04-10T03:03:55.527Z,2.50
2019-04-10T03:06:27.044Z,2.50
2019-04-10T03:09:10.841Z,2.50
2019-04-10T03:11:31.094Z,2.50
2019-04-10T03:14:03.815Z,2.50
2019-04-10T03:16:33.948Z,2.60
2019-04-10T03:19:04.067Z,2.60
2019-04-10T03:21:35.356Z,2.60
2019-04-10T03:24:06.282Z,2.70
2019-04-10T03:26:37.404Z,2.70
2019-04-10T03:29:07.823Z,2.70
2019-04-10T03:31:39.184Z,2.70
2019-04-10T03:37:06.030Z,2.50
2019-04-10T03:39:36.357Z,2.60
2019-04-10T03:42:06.886Z,2.60
2019-04-10T03:44:37.207Z,2.60
2019-04-10T03:47:07.323Z,2.70
2019-04-10T03:49:38.067Z,2.70
2019-04-10T03:52:09.979Z,2.70
2019-04-10T03:54:40.516Z,2.80
2019-04-10T03:57:12.068Z,2.80
2019-04-10T03:59:42.423Z,2.80
2019-04-10T04:02:13.627Z,2.80
2019-04-10T04:04:44.095Z,2.80
2019-04-10T04:07:15.386Z,2.80
2019-04-10T04:09:46.037Z,2.80
2019-04-10T04:12:16.704Z,2.80
2019-04-10T04:14:47.028Z,2.80
2019-04-10T04:17:17.150Z,2.80
2019-04-10T04:19:48.389Z,2.90
2019-04-10T04:22:18.799Z,2.80
2019-04-10T04:24:50.255Z,2.90
2019-04-10T04:27:21.571Z,2.90
2019-04-10T04:29:52.026Z,3.00
2019-04-10T04:32:22.366Z,2.90
2019-04-10T04:34:54.010Z,2.90
2019-04-10T04:37:24.659Z,2.90
2019-04-10T04:39:54.976Z,3.00
2019-04-10T04:42:25.094Z,3.10
2019-04-10T04:44:56.210Z,3.00
2019-04-10T04:47:26.769Z,3.00
2019-04-10T04:49:57.295Z,3.00
2019-04-10T04:52:29.084Z,1.80
2019-04-10T04:55:02.228Z,3.20
2019-04-10T04:57:34.974Z,3.10
2019-04-10T05:00:06.065Z,3.10
2019-04-10T05:02:37.217Z,3.10
2019-04-10T05:05:29.195Z,3.10
2019-04-10T05:08:04.099Z,3.20
2019-04-10T05:10:34.086Z,3.20
2019-04-10T05:13:06.457Z,3.30
2019-04-10T05:15:38.220Z,3.30
2019-04-10T05:18:08.950Z,3.30
2019-04-10T05:20:45.409Z,3.30
2019-04-10T05:23:11.644Z,3.40
2019-04-10T05:25:41.763Z,3.40
2019-04-10T05:28:12.088Z,3.40
2019-04-10T05:30:43.099Z,3.50
2019-04-10T05:33:14.784Z,3.50
2019-04-10T05:35:45.515Z,3.60
2019-04-10T05:38:16.570Z,3.60
2019-04-10T05:40:47.187Z,3.70
2019-04-10T05:43:17.665Z,3.70
2019-04-10T05:46:09.677Z,3.70
2019-04-10T05:48:39.873Z,3.60
2019-04-10T05:51:12.504Z,3.70
2019-04-10T05:53:44.919Z,3.70
2019-04-10T05:56:16.668Z,3.70
2019-04-10T05:58:49.150Z,3.70
2019-04-10T06:01:31.329Z,3.60
2019-04-10T06:03:52.479Z,3.60
2019-04-10T06:06:24.160Z,3.70
2019-04-10T06:08:54.342Z,3.70
2019-04-10T06:11:26.709Z,3.70
2019-04-10T06:13:57.445Z,3.80
2019-04-10T06:16:30.632Z,3.80
2019-04-10T06:19:01.758Z,3.80
2019-04-10T06:21:35.702Z,3.80
2019-04-10T06:24:06.313Z,3.90
2019-04-10T06:26:39.373Z,3.90
2019-04-10T06:29:10.864Z,3.90
2019-04-10T06:31:41.085Z,3.90
2019-04-10T06:34:14.299Z,4.00
2019-04-10T06:36:45.924Z,4.00
2019-04-10T06:39:16.599Z,3.90
2019-04-10T06:41:48.790Z,3.90
2019-04-10T06:44:19.535Z,3.90
2019-04-10T06:46:50.286Z,4.00
2019-04-10T06:49:20.711Z,4.00
2019-04-10T06:51:51.547Z,3.90
2019-04-10T06:54:22.772Z,4.00
2019-04-10T06:56:56.598Z,4.00
2019-04-10T06:59:28.223Z,4.00
2019-04-10T07:02:13.129Z,4.00
2019-04-10T07:04:43.116Z,4.10
2019-04-10T07:07:09.461Z,4.10
2019-04-10T07:09:35.828Z,4.10
2019-04-10T07:12:08.092Z,4.10
2019-04-10T07:14:38.684Z,4.10
2019-04-10T07:17:14.347Z,4.10
2019-04-10T07:19:47.852Z,4.20
2019-04-10T07:22:18.372Z,4.30
2019-04-10T07:24:51.379Z,4.30
2019-04-10T07:27:23.604Z,4.30
2019-04-10T07:29:58.070Z,4.30
2019-04-10T07:32:28.064Z,4.50
2019-04-10T07:35:01.052Z,4.50
2019-04-10T07:37:34.053Z,4.50
2019-04-10T07:40:07.925Z,4.50
2019-04-10T07:42:44.709Z,4.50
2019-04-10T07:45:35.850Z,4.60
2019-04-10T07:48:06.739Z,4.70
2019-04-10T07:50:39.064Z,4.60
2019-04-10T07:53:10.462Z,4.70
2019-04-10T07:55:57.503Z,4.50
2019-04-10T07:58:15.423Z,4.50
2019-04-10T08:00:46.985Z,4.60
2019-04-10T08:03:18.753Z,4.60
2019-04-10T08:05:50.290Z,4.60
2019-04-10T08:08:21.546Z,4.60
2019-04-10T08:10:52.902Z,4.60
2019-04-10T08:13:26.713Z,4.60
2019-04-10T08:15:54.973Z,4.60
2019-04-10T08:18:25.908Z,4.50
2019-04-10T08:20:57.276Z,4.60
2019-04-10T08:23:28.118Z,4.60
2019-04-10T08:25:58.666Z,4.70
2019-04-10T08:28:30.571Z,4.80
2019-04-10T08:31:02.140Z,4.80
2019-04-10T08:33:35.043Z,4.90
2019-04-10T08:36:05.950Z,5.20
2019-04-10T08:38:40.087Z,5.20
2019-04-10T08:41:10.727Z,5.30
2019-04-10T08:43:43.488Z,6.10
2019-04-10T08:46:15.533Z,6.70
2019-04-10T08:48:49.574Z,7.00
2019-04-10T08:51:21.621Z,6.80
2019-04-10T08:53:55.228Z,6.50
2019-04-10T08:56:25.551Z,6.10
2019-04-10T08:58:57.182Z,5.90
2019-04-10T09:01:47.266Z,6.10
2019-04-10T09:04:24.167Z,6.00
2019-04-10T09:06:54.489Z,5.90
2019-04-10T09:09:26.367Z,5.80
2019-04-10T09:12:09.543Z,5.90
2019-04-10T09:14:45.402Z,5.80
2019-04-10T09:17:19.367Z,5.70
2019-04-10T09:19:50.684Z,5.70
2019-04-10T09:22:21.007Z,5.80
2019-04-10T09:24:52.806Z,6.00
2019-04-10T09:27:23.093Z,6.00
2019-04-10T09:29:57.234Z,6.20
2019-04-10T09:32:30.567Z,6.20
2019-04-10T09:35:02.609Z,6.70
2019-04-10T09:37:34.481Z,6.80
2019-04-10T09:40:08.007Z,7.30
2019-04-10T09:42:40.396Z,8.80
2019-04-10T09:45:13.424Z,9.20
2019-04-10T09:48:02.961Z,9.00
2019-04-10T09:50:33.276Z,8.80
2019-04-10T09:53:04.146Z,8.00
2019-04-10T09:55:34.540Z,7.80
2019-04-10T09:58:05.070Z,7.40
2019-04-10T10:00:36.058Z,7.20
2019-04-10T10:03:07.596Z,7.20
2019-04-10T10:05:39.053Z,8.30
2019-04-10T10:08:10.489Z,10.40
2019-04-10T10:10:41.805Z,11.40
2019-04-10T10:13:12.971Z,12.40
2019-04-10T10:15:43.885Z,11.50
2019-04-10T10:18:14.210Z,11.00
2019-04-10T10:20:44.533Z,9.30
2019-04-10T10:23:15.754Z,8.60
2019-04-10T10:25:46.204Z,7.90
2019-04-10T10:28:16.528Z,7.90
2019-04-10T10:30:47.400Z,7.50
2019-04-10T10:33:17.995Z,8.60
2019-04-10T10:35:49.487Z,9.60
2019-04-10T10:38:21.091Z,10.90
2019-04-10T10:40:52.770Z,11.20
2019-04-10T10:43:23.181Z,11.60
2019-04-10T10:45:53.426Z,11.60
2019-04-10T10:48:24.001Z,11.70
2019-04-10T10:50:54.564Z,11.80
2019-04-10T10:53:24.631Z,12.40
2019-04-10T10:55:54.570Z,12.70
2019-04-10T10:58:24.620Z,12.40
2019-04-10T11:00:55.613Z,12.70
2019-04-10T11:03:26.497Z,12.40
2019-04-10T11:05:56.692Z,12.70
2019-04-10T11:08:27.034Z,12.90
2019-04-10T11:10:58.024Z,13.20
2019-04-10T11:13:30.855Z,13.00
2019-04-10T11:16:03.907Z,13.30
2019-04-10T11:18:33.711Z,13.80
2019-04-10T11:23:37.590Z,10.30
2019-04-10T11:26:08.469Z,9.20
2019-04-10T11:28:39.278Z,8.50
2019-04-10T11:31:17.108Z,7.90
2019-04-10T11:33:50.270Z,8.00
2019-04-10T11:36:39.899Z,7.80
2019-04-10T11:42:02.272Z,7.70
2019-04-10T11:47:17.348Z,10.00
2019-04-10T11:49:49.571Z,12.60
2019-04-10T11:52:27.382Z,14.50
2019-04-10T11:54:52.725Z,15.00
2019-04-10T11:57:22.903Z,12.00
2019-04-10T11:59:54.491Z,9.80
2019-04-10T12:02:27.471Z,9.20
2019-04-10T12:05:01.653Z,8.80
2019-04-10T12:07:55.039Z,8.80
2019-04-10T12:12:35.462Z,8.20
2019-04-10T12:15:08.005Z,8.10
2019-04-10T12:17:38.344Z,8.00
2019-04-10T12:20:09.309Z,8.00
2019-04-10T12:22:40.711Z,8.30
2019-04-10T12:25:31.150Z,8.30
2019-04-10T12:28:01.757Z,8.70
2019-04-10T12:30:32.285Z,10.00
2019-04-10T12:33:03.237Z,10.30
2019-04-10T12:35:33.978Z,10.30
2019-04-10T12:38:08.104Z,10.80
2019-04-10T12:40:37.954Z,10.60
2019-04-10T12:43:08.540Z,9.50
2019-04-10T12:45:40.203Z,8.80
2019-04-10T12:48:10.899Z,8.40
2019-04-10T12:50:41.283Z,8.20
2019-04-10T12:53:12.161Z,8.30
2019-04-10T12:55:42.521Z,8.40
2019-04-10T12:58:17.604Z,8.10
2019-04-10T13:00:46.410Z,8.00
2019-04-10T13:03:16.744Z,7.80
2019-04-10T13:05:53.504Z,8.00
2019-04-10T13:08:49.258Z,8.30
2019-04-10T13:11:02.562Z,8.70
2019-04-10T13:13:39.329Z,9.30
2019-04-10T13:16:09.904Z,10.20
2019-04-10T13:18:41.411Z,10.00
2019-04-10T13:21:12.528Z,9.50
2019-04-10T13:23:43.080Z,9.30
2019-04-10T13:26:19.321Z,8.90
2019-04-10T13:28:49.783Z,8.70
2019-04-10T13:31:21.374Z,8.60
2019-04-10T13:33:51.835Z,8.50
2019-04-10T13:36:23.905Z,8.30
2019-04-10T13:38:54.818Z,8.40
2019-04-10T13:41:26.091Z,7.60
2019-04-10T13:43:56.729Z,7.60
2019-04-10T13:46:26.908Z,7.60
2019-04-10T13:48:57.674Z,8.00
2019-04-10T13:51:29.603Z,8.00
2019-04-10T13:53:59.870Z,7.70
2019-04-10T13:56:35.475Z,7.40
2019-04-10T13:59:08.886Z,7.30
2019-04-10T14:01:45.994Z,7.20
2019-04-10T14:04:19.073Z,7.20
2019-04-10T14:06:50.123Z,7.20
2019-04-10T14:09:34.831Z,7.20
2019-04-10T14:11:55.485Z,7.40
2019-04-10T14:14:26.706Z,7.50
2019-04-10T14:16:57.360Z,7.10
2019-04-10T14:19:29.863Z,7.20
2019-04-10T14:22:01.909Z,7.10
2019-04-10T14:24:40.342Z,7.20
2019-04-10T14:27:16.158Z,7.50
2019-04-10T14:29:46.941Z,8.00
2019-04-10T14:32:27.254Z,7.50
2019-04-10T14:34:57.393Z,7.60
2019-04-10T14:37:29.454Z,7.40
2019-04-10T14:39:59.829Z,7.50
2019-04-10T14:42:34.798Z,7.70
2019-04-10T14:45:07.170Z,7.90
2019-04-10T14:47:41.333Z,8.10
2019-04-10T14:50:15.687Z,8.20
2019-04-10T14:52:49.312Z,7.70
2019-04-10T14:55:21.850Z,7.40
2019-04-10T14:57:53.115Z,6.90
2019-04-10T15:00:25.668Z,6.70
2019-04-10T15:02:55.994Z,6.70
2019-04-10T15:05:28.176Z,6.30
2019-04-10T15:07:59.502Z,6.30
2019-04-10T15:10:30.273Z,6.30
2019-04-10T15:13:09.094Z,6.30
2019-04-10T15:15:34.487Z,6.30
2019-04-10T15:18:04.613Z,6.40
2019-04-10T15:20:35.618Z,6.40
2019-04-10T15:23:05.688Z,6.50
2019-04-10T15:25:37.476Z,6.40
2019-04-10T15:28:08.398Z,6.30
2019-04-10T15:30:39.059Z,6.10
2019-04-10T15:33:10.021Z,6.00
2019-04-10T15:35:40.066Z,5.90
2019-04-10T15:38:11.620Z,5.80
2019-04-10T15:40:42.106Z,5.80
2019-04-10T15:43:12.633Z,5.80
2019-04-10T15:45:42.754Z,5.80
2019-04-10T15:48:12.659Z,5.80
2019-04-10T15:50:43.422Z,5.80
2019-04-10T15:53:14.114Z,5.80
2019-04-10T15:55:43.932Z,5.80
2019-04-10T15:58:15.413Z,5.80
2019-04-10T16:00:45.560Z,5.70
2019-04-10T16:03:15.560Z,5.60
2019-04-10T16:05:45.987Z,5.70
2019-04-10T16:08:16.279Z,5.70
2019-04-10T16:10:47.790Z,5.90
2019-04-10T16:13:19.870Z,5.70
2019-04-10T16:15:50.486Z,5.50
2019-04-10T16:18:22.917Z,5.40
2019-04-10T16:21:06.315Z,5.40
2019-04-10T16:23:40.100Z,5.40
2019-04-10T16:26:11.143Z,5.30
2019-04-10T16:28:41.130Z,5.40
2019-04-10T16:31:11.169Z,5.30
2019-04-10T16:33:41.343Z,5.20
2019-04-10T16:36:11.329Z,5.10
2019-04-10T16:38:41.615Z,5.10
2019-04-10T16:41:12.233Z,5.10
2019-04-10T16:43:42.435Z,5.10
2019-04-10T16:46:13.268Z,5.10
2019-04-10T16:48:50.465Z,5.10
2019-04-10T16:51:20.548Z,5.00
2019-04-10T16:53:51.698Z,5.00
2019-04-10T16:56:26.136Z,4.90
2019-04-10T16:58:56.399Z,4.80
2019-04-10T17:01:26.801Z,4.70
2019-04-10T17:03:56.723Z,4.70
2019-04-10T17:06:28.059Z,4.60
2019-04-10T17:08:58.557Z,4.50
2019-04-10T17:11:30.786Z,4.50
2019-04-10T17:14:02.740Z,4.40
2019-04-10T17:16:39.877Z,4.40
2019-04-10T17:19:09.967Z,4.40
2019-04-10T17:21:40.507Z,4.40
2019-04-10T17:24:13.363Z,4.40
2019-04-10T17:26:43.543Z,4.30
2019-04-10T17:29:14.637Z,4.30
2019-04-10T17:31:44.713Z,4.30
2019-04-10T17:34:14.756Z,4.30
2019-04-10T17:36:45.262Z,4.20
2019-04-10T17:39:17.926Z,4.20
2019-04-10T17:41:48.235Z,4.20
2019-04-10T17:44:18.211Z,4.30
2019-04-10T17:46:49.113Z,4.40
2019-04-10T17:49:19.332Z,4.30
2019-04-10T17:51:50.244Z,4.40
2019-04-10T17:54:24.956Z,4.30
2019-04-10T17:56:56.917Z,4.30
2019-04-10T17:59:26.989Z,4.20
2019-04-10T18:01:59.055Z,4.20
2019-04-10T18:04:29.764Z,4.20
2019-04-10T18:06:59.894Z,4.20
2019-04-10T18:09:30.722Z,4.10
2019-04-10T18:12:01.105Z,4.00
2019-04-10T18:14:31.276Z,4.10
2019-04-10T18:17:02.433Z,4.00
2019-04-10T18:19:32.529Z,4.00
2019-04-10T18:22:03.699Z,4.00
2019-04-10T18:24:33.932Z,4.00
2019-04-10T18:27:03.835Z,4.00
2019-04-10T18:29:35.007Z,4.00
2019-04-10T18:32:05.473Z,3.90
2019-04-10T18:34:35.621Z,3.90
2019-04-10T18:37:05.619Z,3.90
2019-04-10T18:39:36.640Z,3.80
2019-04-10T18:42:07.581Z,3.90
2019-04-10T18:44:38.231Z,3.90
2019-04-10T18:47:09.280Z,4.00
2019-04-10T18:49:41.425Z,4.00
2019-04-10T18:52:11.309Z,3.80
2019-04-10T18:54:41.547Z,3.80
2019-04-10T18:57:11.620Z,3.80
2019-04-10T18:59:43.463Z,3.80
2019-04-10T19:02:15.892Z,3.70
2019-04-10T19:04:47.796Z,3.70
2019-04-10T19:07:18.530Z,3.60
2019-04-10T19:09:49.058Z,3.60
2019-04-10T19:12:21.249Z,3.50
2019-04-10T19:14:51.549Z,3.50
2019-04-10T19:17:22.474Z,3.40
2019-04-10T19:19:52.608Z,3.50
2019-04-10T19:22:24.337Z,3.40
2019-04-10T19:24:54.893Z,3.30
2019-04-10T19:27:25.661Z,3.30
2019-04-10T19:30:00.353Z,3.30
2019-04-10T19:32:35.538Z,3.30
2019-04-10T19:35:10.751Z,3.30
2019-04-10T19:37:45.699Z,3.30
2019-04-10T19:42:53.456Z,3.30
2019-04-10T19:45:26.363Z,3.30
2019-04-10T19:47:57.039Z,3.20
2019-04-10T19:50:29.676Z,3.30
2019-04-10T19:53:07.427Z,3.30
2019-04-10T19:55:37.975Z,3.30
2019-04-10T19:58:10.743Z,3.40
2019-04-10T20:00:41.025Z,3.40
2019-04-10T20:03:13.240Z,3.40
2019-04-10T20:05:43.898Z,3.40
2019-04-10T20:08:17.600Z,3.40
2019-04-10T20:10:49.760Z,3.40
2019-04-10T20:13:25.323Z,3.50
2019-04-10T20:15:55.643Z,3.40
2019-04-10T20:18:26.551Z,3.40
2019-04-10T20:20:59.571Z,3.60
2019-04-10T20:23:29.955Z,3.20
2019-04-10T20:26:01.073Z,3.20
2019-04-10T20:28:31.761Z,3.30
2019-04-10T20:31:07.053Z,3.20
2019-04-10T20:33:38.773Z,3.20
2019-04-10T20:36:09.080Z,3.20
2019-04-10T20:38:40.764Z,3.20
2019-04-10T20:41:11.775Z,3.20
2019-04-10T20:43:44.778Z,3.20
2019-04-10T20:46:16.004Z,3.30
2019-04-10T20:48:48.832Z,3.30
2019-04-10T20:51:18.907Z,3.30
2019-04-10T20:53:50.443Z,3.30
2019-04-10T20:56:22.204Z,3.30
2019-04-10T20:58:52.717Z,3.20
2019-04-10T21:01:24.522Z,3.20
2019-04-10T21:03:54.725Z,3.20
2019-04-10T21:06:25.492Z,3.20
2019-04-10T21:09:15.671Z,3.10
2019-04-10T21:11:59.817Z,3.20
2019-04-10T21:14:19.228Z,3.20
2019-04-10T21:16:50.100Z,3.10
2019-04-10T21:19:20.663Z,3.10
2019-04-10T21:21:51.363Z,3.00
2019-04-10T21:24:21.686Z,3.00
2019-04-10T21:26:52.720Z,3.00
2019-04-10T21:29:42.089Z,2.90
2019-04-10T21:32:15.039Z,2.80
2019-04-10T21:34:47.249Z,2.70
2019-04-10T21:37:17.897Z,2.70
2019-04-10T21:39:49.948Z,2.60
2019-04-10T21:42:23.610Z,2.60
2019-04-10T21:44:53.302Z,2.50
2019-04-10T21:47:23.680Z,2.40
2019-04-10T21:49:54.727Z,2.40
2019-04-10T21:52:25.079Z,2.20
2019-04-10T21:54:58.852Z,2.10
2019-04-10T21:57:27.640Z,2.10
2019-04-10T21:59:57.962Z,2.10
2019-04-10T22:02:29.429Z,2.10
2019-04-10T22:05:00.576Z,2.00
2019-04-10T22:07:48.218Z,2.00
2019-04-10T22:10:30.079Z,2.00
2019-04-10T22:13:01.569Z,1.90
2019-04-10T22:15:42.913Z,1.80
2019-04-10T22:18:13.443Z,1.80
2019-04-10T22:20:43.790Z,1.70
2019-04-10T22:23:14.186Z,1.70
2019-04-10T22:25:45.778Z,1.80
2019-04-10T22:28:17.064Z,1.70
2019-04-10T22:30:48.344Z,1.60
2019-04-10T22:33:18.865Z,1.60
2019-04-10T22:35:50.370Z,1.60
2019-04-10T22:38:21.528Z,1.50
2019-04-10T22:40:52.089Z,1.50
2019-04-10T22:43:22.619Z,1.40
2019-04-10T22:45:53.161Z,1.40
2019-04-10T22:48:43.676Z,1.40
2019-04-10T22:51:15.008Z,1.40
2019-04-10T22:53:45.875Z,1.30
2019-04-10T22:56:17.252Z,1.30
2019-04-10T22:58:48.943Z,1.30
2019-04-10T23:01:20.718Z,1.30
2019-04-10T23:03:51.423Z,1.30
2019-04-10T23:06:22.944Z,1.30
2019-04-10T23:08:53.503Z,1.20
2019-04-10T23:11:33.432Z,1.20
2019-04-10T23:13:56.355Z,1.10
2019-04-10T23:16:26.727Z,1.00
2019-04-10T23:18:58.053Z,1.00
2019-04-10T23:21:28.603Z,0.90
2019-04-10T23:23:59.116Z,0.90
2019-04-10T23:26:29.661Z,0.90
2019-04-10T23:29:00.191Z,0.90
2019-04-10T23:31:31.862Z,0.90
2019-04-10T23:34:02.488Z,0.90
2019-04-10T23:36:33.971Z,0.80
2019-04-10T23:39:06.137Z,0.90
2019-04-10T23:41:37.822Z,0.90
2019-04-10T23:44:08.943Z,0.90
2019-04-10T23:46:39.626Z,0.90
2019-04-10T23:49:10.005Z,0.90
2019-04-10T23:51:41.908Z,0.80
2019-04-10T23:54:13.098Z,0.80
2019-04-10T23:56:45.064Z,0.80
2019-04-10T23:59:15.542Z,0.70
